createdAt,value
2023-05-25T00:00:21.095Z,98081.06
2023-05-25T00:02:52.768Z,98097.09
2023-05-25T00:05:20.276Z,98095.19
2023-05-25T00:07:47.408Z,98088.88
2023-05-25T00:10:14.120Z,98106.94
2023-05-25T00:12:40.854Z,98098.59
2023-05-25T00:15:10.628Z,98071.28
2023-05-25T00:17:41.412Z,98084.88
2023-05-25T00:20:11.386Z,98087.72
2023-05-25T00:22:39.507Z,98069.69
2023-05-25T00:25:06.951Z,98070.78
2023-05-25T00:27:33.598Z,98085.88
2023-05-25T00:30:00.471Z,98099.50
2023-05-25T00:32:29.939Z,98081.06
2023-05-25T00:34:56.548Z,98089.28
2023-05-25T00:37:23.216Z,98097.91
2023-05-25T00:39:49.875Z,98091.50
2023-05-25T00:42:16.545Z,98088.28
2023-05-25T00:44:43.683Z,98090.50
2023-05-25T00:47:11.663Z,98086.38
2023-05-25T00:49:38.340Z,98082.69
2023-05-25T00:52:05.631Z,98074.19
2023-05-25T00:54:37.661Z,98072.09
2023-05-25T00:57:07.864Z,98064.38
2023-05-25T00:59:41.306Z,98059.06
2023-05-25T01:02:18.250Z,98085.91
2023-05-25T01:04:47.417Z,98063.59
2023-05-25T01:07:18.124Z,98062.69
2023-05-25T01:09:49.026Z,98086.72
2023-05-25T01:12:16.377Z,98072.50
2023-05-25T01:14:43.715Z,98069.00
2023-05-25T01:17:11.047Z,98081.13
2023-05-25T01:19:41.037Z,98076.81
2023-05-25T01:22:22.213Z,98080.41
2023-05-25T01:24:52.287Z,98081.50
2023-05-25T01:27:43.455Z,98075.31
2023-05-25T01:30:15.405Z,98067.19
2023-05-25T01:32:43.482Z,98075.50
2023-05-25T01:35:11.334Z,98074.59
2023-05-25T01:37:40.289Z,98075.78
2023-05-25T01:40:10.474Z,98081.69
2023-05-25T01:42:37.021Z,98084.47
2023-05-25T01:45:09.197Z,98072.56
2023-05-25T01:47:49.571Z,98080.88
2023-05-25T01:50:23.046Z,98078.78
2023-05-25T01:53:04.173Z,98070.66
2023-05-25T01:55:35.275Z,98074.03
2023-05-25T01:58:02.696Z,98070.94
2023-05-25T02:00:33.758Z,98065.03
2023-05-25T02:03:03.790Z,98063.13
2023-05-25T02:05:32.804Z,98080.84
2023-05-25T02:08:01.830Z,98085.25
2023-05-25T02:10:31.817Z,98037.59
2023-05-25T02:12:58.668Z,98071.13
2023-05-25T02:15:25.733Z,98047.09
2023-05-25T02:17:52.360Z,98054.53
2023-05-25T02:20:19.152Z,98048.41
2023-05-25T02:22:46.434Z,98065.72
2023-05-25T02:25:13.239Z,98054.53
2023-05-25T02:27:43.131Z,98046.72
2023-05-25T02:30:10.352Z,98046.50
2023-05-25T02:32:37.552Z,98062.13
2023-05-25T02:35:04.635Z,98051.41
2023-05-25T02:37:31.724Z,98063.22
2023-05-25T02:39:58.450Z,98060.25
2023-05-25T02:42:25.565Z,98061.34
2023-05-25T02:44:52.238Z,98043.00
2023-05-25T02:47:19.314Z,98057.44
2023-05-25T02:49:48.090Z,98057.22
2023-05-25T02:52:14.920Z,98014.97
2023-05-25T02:54:42.150Z,98060.31
2023-05-25T02:57:12.279Z,98047.59
2023-05-25T02:59:39.194Z,98053.00
2023-05-25T03:02:06.228Z,98039.25
2023-05-25T03:04:34.525Z,98066.22
2023-05-25T03:07:01.750Z,98068.41
2023-05-25T03:09:28.954Z,98058.88
2023-05-25T03:11:55.752Z,98057.28
2023-05-25T03:14:22.389Z,98073.41
2023-05-25T03:16:55.188Z,98036.53
2023-05-25T03:19:23.290Z,98070.56
2023-05-25T03:21:50.316Z,98078.59
2023-05-25T03:24:18.692Z,98012.72
2023-05-25T03:26:45.426Z,98050.34
2023-05-25T03:29:12.084Z,98068.81
2023-05-25T03:31:38.656Z,98073.91
2023-05-25T03:34:08.035Z,98071.22
2023-05-25T03:36:38.919Z,98067.78
2023-05-25T03:39:07.170Z,98074.19
2023-05-25T03:41:33.884Z,98052.88
2023-05-25T03:44:00.597Z,98075.38
2023-05-25T03:46:27.406Z,98061.75
2023-05-25T03:48:57.191Z,98075.38
2023-05-25T03:51:23.898Z,98076.47
2023-05-25T03:53:50.639Z,98065.13
2023-05-25T03:56:17.208Z,98075.75
2023-05-25T03:58:43.870Z,98080.63
2023-05-25T04:01:11.364Z,98075.56
2023-05-25T04:03:38.175Z,98092.66
2023-05-25T04:06:04.937Z,98089.16
2023-05-25T04:08:31.528Z,98084.56
2023-05-25T04:10:58.185Z,98092.97
2023-05-25T04:13:24.773Z,98072.13
2023-05-25T04:15:52.387Z,98089.97
2023-05-25T04:18:22.148Z,98091.56
2023-05-25T04:20:49.413Z,98096.97
2023-05-25T04:23:19.534Z,98110.41
2023-05-25T04:25:46.569Z,98106.59
2023-05-25T04:28:14.468Z,98088.44
2023-05-25T04:30:57.254Z,98108.78
2023-05-25T04:33:38.879Z,98090.25
2023-05-25T04:36:18.070Z,98107.81
2023-05-25T04:38:48.423Z,98098.63
2023-05-25T04:41:15.848Z,98089.13
2023-05-25T04:44:04.762Z,98095.03
2023-05-25T04:46:37.256Z,98087.22
2023-05-25T04:49:10.118Z,98097.53
2023-05-25T04:51:37.427Z,98099.72
2023-05-25T04:54:04.125Z,98098.63
2023-05-25T04:56:31.168Z,98111.69
2023-05-25T04:58:57.868Z,98110.78
2023-05-25T05:01:26.420Z,98102.88
2023-05-25T05:03:55.899Z,98104.28
2023-05-25T05:06:22.958Z,98097.84
2023-05-25T05:08:49.668Z,98096.47
2023-05-25T05:11:16.429Z,98119.31
2023-05-25T05:13:43.886Z,98118.78
2023-05-25T05:16:10.466Z,98113.91
2023-05-25T05:18:37.608Z,98112.88
2023-05-25T05:21:04.461Z,98122.81
2023-05-25T05:23:33.722Z,98129.53
2023-05-25T05:26:00.803Z,98119.81
2023-05-25T05:28:31.178Z,98127.69
2023-05-25T05:30:58.190Z,98126.25
2023-05-25T05:33:26.345Z,98138.97
2023-05-25T05:35:53.385Z,98139.97
2023-05-25T05:38:23.600Z,98140.06
2023-05-25T05:40:50.220Z,98160.22
2023-05-25T05:44:32.279Z,98099.53
2023-05-25T05:47:02.030Z,98158.53
2023-05-25T05:49:30.697Z,98163.59
2023-05-25T05:51:58.325Z,98167.59
2023-05-25T05:54:25.132Z,98153.31
2023-05-25T05:56:52.474Z,98164.47
2023-05-25T05:59:21.510Z,98168.75
2023-05-25T06:01:48.131Z,98158.72
2023-05-25T06:04:16.060Z,98165.44
2023-05-25T06:06:43.305Z,98168.75
2023-05-25T06:09:14.007Z,98169.84
2023-05-25T06:11:40.629Z,98162.53
2023-05-25T06:14:08.145Z,98163.53
2023-05-25T06:16:36.530Z,98165.50
2023-05-25T06:19:03.350Z,98160.63
2023-05-25T06:21:30.029Z,98141.81
2023-05-25T06:23:59.498Z,98154.28
2023-05-25T06:26:27.261Z,98159.72
2023-05-25T06:28:54.720Z,98160.34
2023-05-25T06:31:21.439Z,98170.09
2023-05-25T06:33:48.780Z,98178.91
2023-05-25T06:36:15.827Z,98181.47
2023-05-25T06:38:43.692Z,98183.53
2023-05-25T06:41:12.863Z,98167.91
2023-05-25T06:43:39.848Z,98166.78
2023-05-25T06:46:17.984Z,98162.44
2023-05-25T06:48:45.766Z,98165.75
2023-05-25T06:51:12.382Z,98177.59
2023-05-25T06:53:41.865Z,98184.13
2023-05-25T06:56:08.513Z,98179.75
2023-05-25T06:58:35.236Z,98183.00
2023-05-25T07:01:02.430Z,98179.63
2023-05-25T07:03:29.130Z,98176.91
2023-05-25T07:05:55.865Z,98188.94
2023-05-25T07:08:22.488Z,98192.44
2023-05-25T07:10:50.364Z,98201.38
2023-05-25T07:13:17.424Z,98184.44
2023-05-25T07:15:44.774Z,98205.84
2023-05-25T07:18:12.653Z,98183.41
2023-05-25T07:20:42.224Z,98187.91
2023-05-25T07:23:10.187Z,98210.91
2023-05-25T07:25:38.083Z,98221.94
2023-05-25T07:28:05.013Z,98205.47
2023-05-25T07:30:31.622Z,98221.28
2023-05-25T07:32:58.953Z,98216.16
2023-05-25T07:35:25.802Z,98225.31
2023-05-25T07:37:59.414Z,98229.47
2023-05-25T07:40:26.364Z,98219.91
2023-05-25T07:42:53.555Z,98223.91
2023-05-25T07:45:21.147Z,98220.44
2023-05-25T07:47:47.871Z,98225.94
2023-05-25T07:50:15.110Z,98229.16
2023-05-25T07:52:42.328Z,98219.88
2023-05-25T07:55:09.610Z,98222.72
2023-05-25T07:57:37.687Z,98230.50
2023-05-25T08:00:11.095Z,98217.28
2023-05-25T08:02:41.080Z,98205.78
2023-05-25T08:05:08.367Z,98209.59
2023-05-25T08:07:35.123Z,98200.97
2023-05-25T08:10:02.671Z,98192.09
2023-05-25T08:12:47.049Z,98207.09
2023-05-25T08:15:15.036Z,98191.25
2023-05-25T08:17:41.821Z,98187.56
2023-05-25T08:20:09.265Z,98218.44
2023-05-25T08:22:36.155Z,98204.88
2023-05-25T08:25:04.121Z,98209.19
2023-05-25T08:27:32.281Z,98208.97
2023-05-25T08:30:00.558Z,98187.69
2023-05-25T08:32:27.304Z,98210.34
2023-05-25T08:34:54.026Z,98207.97
2023-05-25T08:37:23.435Z,98201.25
2023-05-25T08:39:50.169Z,98208.78
2023-05-25T08:42:16.782Z,98204.56
2023-05-25T08:44:43.534Z,98211.84
2023-05-25T08:47:11.984Z,98208.09
2023-05-25T08:49:39.431Z,98205.78
2023-05-25T08:52:10.567Z,98210.47
2023-05-25T08:54:40.904Z,98213.28
2023-05-25T08:57:17.766Z,98213.94
2023-05-25T09:00:04.118Z,98202.28
2023-05-25T09:02:52.050Z,98210.16
2023-05-25T09:05:19.206Z,98194.81
2023-05-25T09:07:46.725Z,98207.81
2023-05-25T09:10:14.562Z,98203.53
2023-05-25T09:12:42.739Z,98206.16
2023-05-25T09:15:12.811Z,98204.66
2023-05-25T09:17:41.242Z,98208.28
2023-05-25T09:20:10.842Z,98209.69
2023-05-25T09:22:37.563Z,98213.44
2023-05-25T09:25:06.988Z,98221.81
2023-05-25T09:27:35.915Z,98227.19
2023-05-25T09:30:02.644Z,98226.22
2023-05-25T09:32:29.534Z,98224.03
2023-05-25T09:34:57.700Z,98212.16
2023-05-25T09:37:24.512Z,98214.47
2023-05-25T09:39:51.536Z,98210.94
2023-05-25T09:42:18.283Z,98209.53
2023-05-25T09:44:45.047Z,98218.25
2023-05-25T09:47:13.859Z,98200.66
2023-05-25T09:49:41.890Z,98206.69
2023-05-25T09:52:08.858Z,98198.81
2023-05-25T09:54:36.420Z,98206.69
2023-05-25T09:57:05.147Z,98211.38
2023-05-25T09:59:32.286Z,98204.38
2023-05-25T10:02:02.699Z,98204.53
2023-05-25T10:04:29.666Z,98197.53
2023-05-25T10:06:57.044Z,98198.19
2023-05-25T10:09:25.951Z,98199.84
2023-05-25T10:11:52.816Z,98206.25
2023-05-25T10:14:30.169Z,98223.84
2023-05-25T10:17:01.657Z,98209.50
2023-05-25T10:19:42.761Z,98215.09
2023-05-25T10:22:38.819Z,98221.31
2023-05-25T10:25:10.756Z,98227.72
2023-05-25T10:27:43.799Z,98219.94
2023-05-25T10:30:11.082Z,98225.06
2023-05-25T10:32:37.913Z,98213.56
2023-05-25T10:35:08.090Z,98219.72
2023-05-25T10:37:37.812Z,98205.03
2023-05-25T10:40:08.577Z,98211.03
2023-05-25T10:42:37.023Z,98210.06
2023-05-25T10:45:06.753Z,98191.72
2023-05-25T10:47:35.740Z,98214.41
2023-05-25T10:50:03.549Z,98205.19
2023-05-25T10:52:32.220Z,98209.59
2023-05-25T10:55:08.143Z,98208.78
2023-05-25T10:57:35.149Z,98200.72
2023-05-25T11:00:10.283Z,98201.50
2023-05-25T11:02:58.178Z,98216.31
2023-05-25T11:05:27.746Z,98219.69
2023-05-25T11:07:58.356Z,98219.13
2023-05-25T11:10:44.835Z,98222.13
2023-05-25T11:13:23.690Z,98216.63
2023-05-25T11:16:18.314Z,98211.41
2023-05-25T11:18:47.060Z,98205.28
2023-05-25T11:21:22.843Z,98211.00
2023-05-25T11:23:58.725Z,98208.19
2023-05-25T11:26:27.160Z,98200.34
2023-05-25T11:28:54.840Z,98203.69
2023-05-25T11:31:35.205Z,98196.00
2023-05-25T11:34:05.777Z,98189.59
2023-05-25T11:36:34.818Z,98164.00
2023-05-25T11:39:06.693Z,98197.72
2023-05-25T11:41:47.795Z,98200.34
2023-05-25T11:44:14.908Z,98191.16
2023-05-25T11:46:48.701Z,98203.59
2023-05-25T11:49:15.880Z,98200.47
2023-05-25T11:51:43.272Z,98204.03
2023-05-25T11:54:09.923Z,98194.91
2023-05-25T11:56:37.132Z,98190.91
2023-05-25T11:59:07.568Z,98208.25
2023-05-25T12:01:34.228Z,98203.75
2023-05-25T12:04:09.321Z,98188.69
2023-05-25T12:06:38.977Z,98192.94
2023-05-25T12:09:11.919Z,98189.13
2023-05-25T12:11:38.868Z,98197.97
2023-05-25T12:14:07.004Z,98193.44
2023-05-25T12:16:35.194Z,98196.50
2023-05-25T12:19:02.422Z,98208.25
2023-05-25T12:21:29.260Z,98201.75
2023-05-25T12:23:56.295Z,98195.16
2023-05-25T12:26:23.468Z,98199.25
2023-05-25T12:29:07.343Z,98200.53
2023-05-25T12:31:35.852Z,98198.16
2023-05-25T12:34:16.520Z,98198.88
2023-05-25T12:36:50.630Z,98200.72
2023-05-25T12:39:29.613Z,98191.44
2023-05-25T12:42:02.009Z,98199.81
2023-05-25T12:44:31.602Z,98199.16
2023-05-25T12:47:25.607Z,98183.94
2023-05-25T12:49:53.782Z,98194.63
2023-05-25T12:52:34.747Z,98200.53
2023-05-25T12:55:19.991Z,98193.59
2023-05-25T12:57:53.286Z,98194.38
2023-05-25T13:00:22.094Z,98196.50
2023-05-25T13:02:50.529Z,98177.72
2023-05-25T13:05:22.049Z,98168.31
2023-05-25T13:07:48.973Z,98183.03
2023-05-25T13:10:17.775Z,98190.38
2023-05-25T13:12:45.933Z,98184.66
2023-05-25T13:15:15.292Z,98178.25
2023-05-25T13:17:43.780Z,98184.81
2023-05-25T13:20:18.535Z,98178.34
2023-05-25T13:22:46.296Z,98180.28
2023-05-25T13:25:13.781Z,98156.75
2023-05-25T13:27:48.818Z,98177.38
2023-05-25T13:30:15.746Z,98155.75
2023-05-25T13:32:43.470Z,98169.56
2023-05-25T13:35:19.368Z,98174.88
2023-05-25T13:37:46.334Z,98165.69
2023-05-25T13:40:13.614Z,98171.69
2023-05-25T13:42:40.703Z,98154.13
2023-05-25T13:45:08.033Z,98159.75
2023-05-25T13:47:34.776Z,98169.53
2023-05-25T13:50:01.548Z,98152.38
2023-05-25T13:52:28.685Z,98181.75
2023-05-25T13:54:55.351Z,98167.69
2023-05-25T13:57:22.540Z,98157.66
2023-05-25T13:59:49.339Z,98170.53
2023-05-25T14:02:16.203Z,98163.84
2023-05-25T14:04:42.866Z,98168.06
2023-05-25T14:07:09.539Z,98162.66
2023-05-25T14:09:36.546Z,98148.38
2023-05-25T14:12:03.407Z,98152.28
2023-05-25T14:14:32.520Z,98154.19
2023-05-25T14:17:01.089Z,98159.56
2023-05-25T14:19:28.113Z,98165.78
2023-05-25T14:24:24.362Z,98154.63
2023-05-25T14:26:51.070Z,98157.50
2023-05-25T14:29:17.801Z,98159.22
2023-05-25T14:31:44.441Z,98157.59
2023-05-25T14:34:11.096Z,98157.13
2023-05-25T14:36:38.927Z,98168.44
2023-05-25T14:39:05.590Z,98160.47
2023-05-25T14:41:32.180Z,98165.13
2023-05-25T14:43:58.784Z,98167.78
2023-05-25T14:46:25.563Z,98154.69
2023-05-25T14:48:52.294Z,98165.66
2023-05-25T14:51:18.923Z,98158.50
2023-05-25T14:53:45.980Z,98170.69
2023-05-25T14:56:12.710Z,98166.19
2023-05-25T14:58:39.433Z,98163.84
2023-05-25T15:01:06.144Z,98167.19
2023-05-25T15:03:33.220Z,98168.91
2023-05-25T15:05:59.911Z,98171.88
2023-05-25T15:08:26.856Z,98171.59
2023-05-25T15:10:53.563Z,98167.88
2023-05-25T15:13:22.666Z,98147.75
2023-05-25T15:15:52.104Z,98140.31
2023-05-25T15:18:18.942Z,98162.06
2023-05-25T15:20:46.042Z,98151.72
2023-05-25T15:23:12.752Z,98165.31
2023-05-25T15:25:39.356Z,98154.84
2023-05-25T15:28:06.823Z,98163.38
2023-05-25T15:30:34.391Z,98160.25
2023-05-25T15:33:01.804Z,98153.81
2023-05-25T15:35:31.184Z,98156.13
2023-05-25T15:38:01.504Z,98163.66
2023-05-25T15:40:28.408Z,98160.03
2023-05-25T15:42:55.098Z,98151.31
2023-05-25T15:45:21.807Z,98145.38
2023-05-25T15:47:49.014Z,98163.06
2023-05-25T15:50:16.143Z,98159.09
2023-05-25T15:52:43.033Z,98159.09
2023-05-25T15:55:09.881Z,98161.88
2023-05-25T15:57:36.476Z,98159.09
2023-05-25T16:00:05.573Z,98158.59
2023-05-25T16:02:32.670Z,98153.09
2023-05-25T16:04:59.414Z,98142.34
2023-05-25T16:07:26.086Z,98155.41
2023-05-25T16:09:52.639Z,98156.47
2023-05-25T16:12:19.442Z,98146.94
2023-05-25T16:14:46.093Z,98144.94
2023-05-25T16:17:12.753Z,98152.38
2023-05-25T16:19:39.398Z,98144.13
2023-05-25T16:22:06.028Z,98159.63
2023-05-25T16:24:32.647Z,98151.66
2023-05-25T16:26:59.353Z,98156.47
2023-05-25T16:29:26.236Z,98157.94
2023-05-25T16:31:54.742Z,98155.88
2023-05-25T16:34:21.896Z,98156.97
2023-05-25T16:36:48.591Z,98155.44
2023-05-25T16:39:15.272Z,98157.78
2023-05-25T16:41:41.950Z,98156.16
2023-05-25T16:44:10.862Z,98157.41
2023-05-25T16:46:37.964Z,98144.31
2023-05-25T16:49:05.143Z,98137.09
2023-05-25T16:51:31.726Z,98153.22
2023-05-25T16:53:58.426Z,98144.91
2023-05-25T16:56:25.094Z,98143.63
2023-05-25T16:58:51.919Z,98142.50
2023-05-25T17:01:18.654Z,98147.59
2023-05-25T17:03:45.563Z,98133.72
2023-05-25T17:06:12.908Z,98133.19
2023-05-25T17:08:39.555Z,98147.25
2023-05-25T17:11:06.185Z,98147.59
2023-05-25T17:13:32.854Z,98149.72
2023-05-25T17:15:59.658Z,98141.78
2023-05-25T17:18:26.922Z,98131.41
2023-05-25T17:20:54.014Z,98154.81
2023-05-25T17:23:22.007Z,98156.81
2023-05-25T17:25:48.701Z,98146.59
2023-05-25T17:28:15.398Z,98153.16
2023-05-25T17:30:42.016Z,98140.41
2023-05-25T17:33:08.735Z,98156.19
2023-05-25T17:35:35.494Z,98150.19
2023-05-25T17:38:02.236Z,98152.94
2023-05-25T17:40:28.939Z,98158.50
2023-05-25T17:42:55.646Z,98158.44
2023-05-25T17:45:22.380Z,98158.69
2023-05-25T17:47:49.073Z,98156.66
2023-05-25T17:50:16.628Z,98156.22
2023-05-25T17:52:43.329Z,98162.44
2023-05-25T17:55:10.317Z,98173.72
2023-05-25T17:57:36.951Z,98169.22
2023-05-25T18:00:04.461Z,98140.13
2023-05-25T18:02:39.703Z,98175.38
2023-05-25T18:05:06.826Z,98155.22
2023-05-25T18:07:34.018Z,98170.66
2023-05-25T18:10:00.818Z,98176.16
2023-05-25T18:12:27.422Z,98162.44
2023-05-25T18:14:54.101Z,98170.34
2023-05-25T18:17:20.708Z,98174.78
2023-05-25T18:19:47.417Z,98172.25
2023-05-25T18:22:14.153Z,98171.38
2023-05-25T18:24:40.750Z,98186.25
2023-05-25T18:27:07.414Z,98186.16
2023-05-25T18:29:34.205Z,98190.84
2023-05-25T18:32:00.795Z,98175.69
2023-05-25T18:34:27.468Z,98201.38
2023-05-25T18:36:54.062Z,98184.78
2023-05-25T18:39:20.735Z,98192.38
2023-05-25T18:41:47.467Z,98185.16
2023-05-25T18:44:14.185Z,98189.75
2023-05-25T18:46:43.200Z,98185.63
2023-05-25T18:49:10.845Z,98177.47
2023-05-25T18:51:37.796Z,98199.84
2023-05-25T18:54:04.590Z,98196.16
2023-05-25T18:56:31.197Z,98192.63
2023-05-25T18:58:58.204Z,98194.47
2023-05-25T19:01:25.553Z,98197.94
2023-05-25T19:03:52.496Z,98191.41
2023-05-25T19:06:19.381Z,98209.44
2023-05-25T19:08:46.053Z,98206.44
2023-05-25T19:11:14.378Z,98207.16
2023-05-25T19:13:41.130Z,98208.56
2023-05-25T19:16:08.592Z,98210.25
2023-05-25T19:18:35.343Z,98218.13
2023-05-25T19:21:02.597Z,98223.84
2023-05-25T19:23:29.364Z,98226.94
2023-05-25T19:25:56.687Z,98229.13
2023-05-25T19:28:23.624Z,98225.38
2023-05-25T19:30:50.602Z,98233.50
2023-05-25T19:33:17.269Z,98232.50
2023-05-25T19:35:44.063Z,98231.63
2023-05-25T19:38:11.068Z,98204.47
2023-05-25T19:40:37.649Z,98230.19
2023-05-25T19:43:04.707Z,98231.31
2023-05-25T19:45:31.434Z,98229.09
2023-05-25T19:47:58.185Z,98235.47
2023-05-25T19:50:30.341Z,98234.81
2023-05-25T19:52:58.623Z,98237.44
2023-05-25T19:55:25.676Z,98236.22
2023-05-25T19:57:52.489Z,98235.09
2023-05-25T20:00:26.142Z,98235.00
2023-05-25T20:02:53.572Z,98241.41
2023-05-25T20:05:20.382Z,98240.97
2023-05-25T20:07:47.373Z,98256.56
2023-05-25T20:10:14.269Z,98249.28
2023-05-25T20:12:41.514Z,98250.75
2023-05-25T20:15:08.561Z,98260.56
2023-05-25T20:17:35.366Z,98262.03
2023-05-25T20:20:03.762Z,98260.34
2023-05-25T20:22:32.176Z,98244.41
2023-05-25T20:25:00.735Z,98267.53
2023-05-25T20:27:27.798Z,98263.66
2023-05-25T20:29:54.779Z,98269.13
2023-05-25T20:32:21.626Z,98270.94
2023-05-25T20:34:48.314Z,98277.44
2023-05-25T20:37:15.215Z,98266.97
2023-05-25T20:39:41.808Z,98280.75
2023-05-25T20:42:08.612Z,98271.75
2023-05-25T20:44:35.463Z,98276.28
2023-05-25T20:47:02.151Z,98293.03
2023-05-25T20:49:28.777Z,98287.69
2023-05-25T20:51:55.508Z,98282.59
2023-05-25T20:54:22.108Z,98293.53
2023-05-25T20:56:50.929Z,98291.38
2023-05-25T20:59:17.583Z,98285.19
2023-05-25T21:01:44.646Z,98275.25
2023-05-25T21:04:11.536Z,98275.16
2023-05-25T21:06:38.297Z,98286.50
2023-05-25T21:09:05.007Z,98282.59
2023-05-25T21:11:31.656Z,98283.13
2023-05-25T21:13:58.320Z,98293.16
2023-05-25T21:16:25.622Z,98285.38
2023-05-25T21:18:52.340Z,98286.38
2023-05-25T21:21:19.210Z,98274.69
2023-05-25T21:23:46.026Z,98286.13
2023-05-25T21:26:12.789Z,98271.94
2023-05-25T21:28:42.400Z,98277.72
2023-05-25T21:31:09.091Z,98289.75
2023-05-25T21:33:37.560Z,98297.47
2023-05-25T21:36:04.355Z,98293.69
2023-05-25T21:38:31.061Z,98295.66
2023-05-25T21:40:58.733Z,98296.63
2023-05-25T21:43:27.237Z,98300.41
2023-05-25T21:45:53.952Z,98300.59
2023-05-25T21:48:21.410Z,98302.53
2023-05-25T21:50:50.478Z,98299.47
2023-05-25T21:53:17.741Z,98301.94
2023-05-25T21:55:45.408Z,98301.13
2023-05-25T21:58:17.514Z,98302.91
2023-05-25T22:00:44.556Z,98302.00
2023-05-25T22:03:11.320Z,98307.47
2023-05-25T22:05:38.138Z,98309.72
2023-05-25T22:08:05.460Z,98311.84
2023-05-25T22:10:32.210Z,98313.28
2023-05-25T22:12:58.902Z,98303.69
2023-05-25T22:15:25.636Z,98309.13
2023-05-25T22:17:52.482Z,98314.72
2023-05-25T22:20:19.363Z,98305.13
2023-05-25T22:22:46.154Z,98311.06
2023-05-25T22:25:13.270Z,98316.22
2023-05-25T22:27:40.686Z,98307.09
2023-05-25T22:30:07.938Z,98301.84
2023-05-25T22:32:35.170Z,98308.41
2023-05-25T22:35:02.334Z,98312.75
2023-05-25T22:37:28.981Z,98315.94
2023-05-25T22:39:55.605Z,98300.94
2023-05-25T22:42:22.262Z,98313.41
2023-05-25T22:44:51.711Z,98304.31
2023-05-25T22:47:18.401Z,98306.53
2023-05-25T22:49:45.261Z,98308.16
2023-05-25T22:52:12.318Z,98325.47
2023-05-25T22:54:39.678Z,98316.00
2023-05-25T22:57:08.230Z,98266.09
2023-05-25T22:59:35.024Z,98295.03
2023-05-25T23:02:01.868Z,98318.41
2023-05-25T23:04:28.621Z,98328.47
2023-05-25T23:06:55.275Z,98314.06
2023-05-25T23:09:21.931Z,98311.97
2023-05-25T23:11:48.538Z,98319.97
2023-05-25T23:14:15.209Z,98320.31
2023-05-25T23:16:41.938Z,98307.53
2023-05-25T23:19:08.620Z,98317.59
2023-05-25T23:21:35.336Z,98311.34
2023-05-25T23:24:02.015Z,98308.13
2023-05-25T23:26:28.682Z,98319.34
2023-05-25T23:28:55.449Z,98316.00
2023-05-25T23:31:22.207Z,98308.13
2023-05-25T23:33:48.888Z,98323.47
2023-05-25T23:36:15.596Z,98324.91
2023-05-25T23:38:42.736Z,98299.16
2023-05-25T23:41:09.382Z,98318.53
2023-05-25T23:43:36.049Z,98333.72
2023-05-25T23:46:02.755Z,98325.22
2023-05-25T23:48:29.392Z,98326.22
2023-05-25T23:50:56.146Z,98325.22
2023-05-25T23:53:22.777Z,98312.75
2023-05-25T23:55:49.551Z,98323.81
2023-05-25T23:58:16.420Z,98330.22
